Rock City, Illinois
Current Conditions -  °F | °C
As of 2:35 AM on Saturday 20 Dec 2014 (Local Time) from KFEP Reporting Station
Haze Haze  
Wind Chill: 27°   Ceiling: 3100
Heat Index: 27°   Visibility: 5mi
Dew Point: 24°   Wind: 0mph
Humidity: 91%   Direction: NA
Pressure: 30.29"   Gusts: NA
Location:  42.41°N, 89.47°W
Report Text: KFEP 200835Z AUTO 00000KT 5SM BR OVC031 M03/M04 A3029 RMK AO2 T10301043
Loading
Personal Weather Stations






























Interactive Weather Map New forecast layout! Learn more

10-Day Weather Forecast

Advertisements
Track Severe Weather on mobile